createdAt,value
2017-07-23T00:00:35.669Z,0
2017-07-23T00:01:16.153Z,0
2017-07-23T00:01:56.619Z,0
2017-07-23T00:02:37.083Z,0
2017-07-23T00:03:17.543Z,0
2017-07-23T00:03:58.035Z,0
2017-07-23T00:04:38.571Z,0
2017-07-23T00:05:19.005Z,0
2017-07-23T00:05:59.422Z,0
2017-07-23T00:06:39.922Z,0
2017-07-23T00:07:20.382Z,0
2017-07-23T00:08:00.834Z,0
2017-07-23T00:08:41.208Z,0
2017-07-23T00:09:21.707Z,0
2017-07-23T00:10:02.109Z,0
2017-07-23T00:10:42.579Z,0
2017-07-23T00:11:23.008Z,0
2017-07-23T00:12:03.490Z,0
2017-07-23T00:12:43.929Z,0
2017-07-23T00:13:24.415Z,0
2017-07-23T00:14:04.877Z,0
2017-07-23T00:14:45.410Z,0
2017-07-23T00:15:25.877Z,0
2017-07-23T00:16:06.329Z,0
2017-07-23T00:16:46.789Z,0
2017-07-23T00:17:27.198Z,0
2017-07-23T00:18:07.702Z,0
2017-07-23T00:18:48.160Z,0
2017-07-23T00:19:28.640Z,0
2017-07-23T00:20:09.169Z,0
2017-07-23T00:20:49.566Z,0
2017-07-23T00:21:30.050Z,0
2017-07-23T00:22:10.478Z,0
2017-07-23T00:22:50.925Z,0
2017-07-23T00:23:31.412Z,0
2017-07-23T00:24:11.859Z,0
2017-07-23T00:24:52.308Z,0
2017-07-23T00:25:32.812Z,0
2017-07-23T00:26:13.230Z,0
2017-07-23T00:26:53.667Z,0
2017-07-23T00:29:31.756Z,0
2017-07-23T00:30:12.205Z,0
2017-07-23T00:30:52.687Z,0
2017-07-23T00:31:33.130Z,0
2017-07-23T00:32:13.606Z,0
2017-07-23T00:32:54.030Z,0
2017-07-23T00:33:34.457Z,0
2017-07-23T00:34:14.895Z,0
2017-07-23T00:34:55.372Z,0
2017-07-23T00:35:35.841Z,0
2017-07-23T00:36:16.301Z,0
2017-07-23T00:36:56.734Z,0
2017-07-23T00:37:37.181Z,0
2017-07-23T00:38:17.648Z,0
2017-07-23T00:38:58.066Z,0
2017-07-23T00:39:38.525Z,0
2017-07-23T00:40:18.972Z,0
2017-07-23T00:42:46.922Z,0
2017-07-23T00:45:19.928Z,0
2017-07-23T00:46:00.412Z,0
2017-07-23T00:46:41.809Z,0
2017-07-23T00:47:22.345Z,0
2017-07-23T00:48:02.829Z,0
2017-07-23T00:48:43.286Z,0
2017-07-23T00:49:23.732Z,0
2017-07-23T00:50:04.194Z,0
2017-07-23T00:50:44.666Z,0
2017-07-23T00:53:22.707Z,0
2017-07-23T00:54:03.181Z,0
2017-07-23T00:54:43.601Z,0
2017-07-23T00:56:57.273Z,0
2017-07-23T00:57:37.721Z,0
2017-07-23T00:58:18.165Z,0
2017-07-23T00:58:58.594Z,0
2017-07-23T00:59:39.002Z,0
2017-07-23T01:00:19.494Z,0
2017-07-23T01:00:59.932Z,0
2017-07-23T01:01:40.398Z,0
2017-07-23T01:02:20.799Z,0
2017-07-23T01:03:01.243Z,0
2017-07-23T01:03:41.708Z,0
2017-07-23T01:04:22.156Z,0
2017-07-23T01:05:02.584Z,0
2017-07-23T01:05:43.024Z,0
2017-07-23T01:06:23.498Z,0
2017-07-23T01:07:04.020Z,0
2017-07-23T01:07:44.491Z,0
2017-07-23T01:08:24.948Z,0
2017-07-23T01:11:03.047Z,0
2017-07-23T01:11:43.526Z,0
2017-07-23T01:12:24.543Z,0
2017-07-23T01:13:05.019Z,0
2017-07-23T01:13:45.469Z,0
2017-07-23T01:14:25.895Z,0
2017-07-23T01:15:06.364Z,0
2017-07-23T01:15:46.843Z,0
2017-07-23T01:16:27.296Z,0
2017-07-23T01:17:07.745Z,0
2017-07-23T01:17:48.218Z,0
2017-07-23T01:18:29.355Z,0
2017-07-23T01:19:09.800Z,0
2017-07-23T01:19:50.270Z,0
2017-07-23T01:20:30.729Z,0
2017-07-23T01:21:11.835Z,0
2017-07-23T01:21:53.260Z,0
2017-07-23T01:22:33.716Z,0
2017-07-23T01:23:14.161Z,0
2017-07-23T01:25:26.881Z,0
2017-07-23T01:26:07.363Z,0
2017-07-23T01:28:20.078Z,0
2017-07-23T01:30:48.398Z,0
2017-07-23T01:31:28.844Z,0
2017-07-23T01:32:09.325Z,0
2017-07-23T01:32:49.732Z,0
2017-07-23T01:35:23.251Z,0
2017-07-23T01:36:03.727Z,0
2017-07-23T01:36:44.200Z,0
2017-07-23T01:37:24.648Z,0
2017-07-23T01:40:02.799Z,0
2017-07-23T01:40:43.212Z,0
2017-07-23T01:41:23.672Z,0
2017-07-23T01:42:04.127Z,0
2017-07-23T01:42:44.590Z,0
2017-07-23T01:43:25.035Z,0
2017-07-23T01:44:05.503Z,0
2017-07-23T01:44:45.942Z,0
2017-07-23T01:45:26.426Z,0
2017-07-23T01:46:06.886Z,0
2017-07-23T01:46:47.367Z,0
2017-07-23T01:49:26.344Z,0
2017-07-23T01:50:06.809Z,0
2017-07-23T01:50:47.265Z,0
2017-07-23T01:51:27.688Z,0
2017-07-23T01:52:08.131Z,0
2017-07-23T01:52:48.583Z,0
2017-07-23T01:55:21.910Z,0
2017-07-23T01:56:02.410Z,0
2017-07-23T01:56:42.901Z,0
2017-07-23T01:57:23.391Z,0
2017-07-23T01:58:03.870Z,0
2017-07-23T01:58:44.319Z,0
2017-07-23T01:59:24.766Z,0
2017-07-23T02:00:05.246Z,0
2017-07-23T02:00:45.715Z,0
2017-07-23T02:01:26.178Z,0
2017-07-23T02:02:06.627Z,0
2017-07-23T02:02:47.058Z,0
2017-07-23T02:03:27.548Z,0
2017-07-23T02:04:07.994Z,0
2017-07-23T02:04:48.467Z,0
2017-07-23T02:05:28.943Z,0
2017-07-23T02:06:09.379Z,0
2017-07-23T02:06:49.839Z,0
2017-07-23T02:07:30.287Z,0
2017-07-23T02:08:10.748Z,0
2017-07-23T02:08:51.211Z,0
2017-07-23T02:09:31.646Z,0
2017-07-23T02:10:12.116Z,0
2017-07-23T02:10:52.579Z,0
2017-07-23T02:11:33.051Z,0
2017-07-23T02:12:13.489Z,0
2017-07-23T02:12:53.975Z,0
2017-07-23T02:13:34.441Z,0
2017-07-23T02:14:14.885Z,0
2017-07-23T02:16:52.983Z,0
2017-07-23T02:17:33.441Z,0
2017-07-23T02:18:13.905Z,0
2017-07-23T02:18:54.372Z,0
2017-07-23T02:19:34.852Z,0
2017-07-23T02:20:15.311Z,0
2017-07-23T02:20:55.762Z,0
2017-07-23T02:21:36.188Z,0
2017-07-23T02:22:16.657Z,0
2017-07-23T02:22:57.144Z,0
2017-07-23T02:23:37.606Z,0
2017-07-23T02:24:18.079Z,0
2017-07-23T02:24:58.530Z,0
2017-07-23T02:25:38.981Z,0
2017-07-23T02:26:19.441Z,0
2017-07-23T02:26:59.906Z,0
2017-07-23T02:27:40.360Z,0
2017-07-23T02:28:20.845Z,0
2017-07-23T02:29:01.270Z,0
2017-07-23T02:31:15.027Z,0
2017-07-23T02:31:55.453Z,0
2017-07-23T02:32:35.968Z,0
2017-07-23T02:33:16.434Z,0
2017-07-23T02:33:56.913Z,0
2017-07-23T02:34:37.385Z,0
2017-07-23T02:36:50.110Z,0
2017-07-23T02:37:30.609Z,0
2017-07-23T02:38:11.826Z,0
2017-07-23T02:38:52.271Z,0
2017-07-23T02:39:32.719Z,0
2017-07-23T02:42:10.815Z,0
2017-07-23T02:42:51.305Z,0
2017-07-23T02:43:31.784Z,0
2017-07-23T02:44:12.289Z,0
2017-07-23T02:44:52.763Z,0
2017-07-23T02:45:33.268Z,0
2017-07-23T02:46:13.753Z,0
2017-07-23T02:46:54.229Z,0
2017-07-23T02:49:06.959Z,0
2017-07-23T02:49:47.424Z,0
2017-07-23T02:50:27.980Z,0
2017-07-23T02:51:08.426Z,0
2017-07-23T02:51:48.919Z,0
2017-07-23T02:52:29.373Z,0
2017-07-23T02:53:09.818Z,0
2017-07-23T02:53:50.272Z,0
2017-07-23T02:54:30.761Z,0
2017-07-23T02:55:11.191Z,0
2017-07-23T02:55:51.671Z,0
2017-07-23T02:56:32.121Z,0
2017-07-23T02:59:00.873Z,0
2017-07-23T02:59:41.319Z,0
2017-07-23T03:00:21.803Z,0
2017-07-23T03:01:02.257Z,0
2017-07-23T03:01:42.730Z,0
2017-07-23T03:02:23.170Z,0
2017-07-23T03:03:03.613Z,0
2017-07-23T03:03:44.072Z,0
2017-07-23T03:04:24.551Z,0
2017-07-23T03:05:05.013Z,0
2017-07-23T03:07:38.030Z,0
2017-07-23T03:08:18.493Z,0
2017-07-23T03:08:58.939Z,0
2017-07-23T03:11:11.650Z,0
2017-07-23T03:11:52.084Z,0
2017-07-23T03:12:32.547Z,0
2017-07-23T03:13:13.006Z,0
2017-07-23T03:15:51.097Z,0
2017-07-23T03:16:31.548Z,0
2017-07-23T03:17:12.021Z,0
2017-07-23T03:17:52.470Z,0
2017-07-23T03:18:32.903Z,0
2017-07-23T03:19:13.324Z,0
2017-07-23T03:19:53.735Z,0
2017-07-23T03:20:34.205Z,0
2017-07-23T03:21:14.657Z,0
2017-07-23T03:21:55.117Z,0
2017-07-23T03:22:35.560Z,0
2017-07-23T03:23:16.031Z,0
2017-07-23T03:23:56.469Z,0
2017-07-23T03:24:36.936Z,0
2017-07-23T03:25:17.393Z,0
2017-07-23T03:25:57.876Z,0
2017-07-23T03:26:38.289Z,0
2017-07-23T03:28:51.235Z,0
2017-07-23T03:29:31.695Z,0
2017-07-23T03:30:12.131Z,0
2017-07-23T03:30:52.594Z,0
2017-07-23T03:31:32.997Z,0
2017-07-23T03:32:13.446Z,0
2017-07-23T03:32:54.434Z,0
2017-07-23T03:33:34.919Z,0
2017-07-23T03:34:15.390Z,0
2017-07-23T03:34:55.839Z,0
2017-07-23T03:35:36.254Z,0
2017-07-23T03:36:16.700Z,0
2017-07-23T03:36:57.149Z,0
2017-07-23T03:39:09.897Z,0
2017-07-23T03:39:50.362Z,0
2017-07-23T03:40:30.810Z,0
2017-07-23T03:41:11.285Z,0
2017-07-23T03:41:51.734Z,0
2017-07-23T03:42:32.211Z,0
2017-07-23T03:43:12.685Z,0
2017-07-23T03:43:53.118Z,0
2017-07-23T03:44:33.536Z,0
2017-07-23T03:45:13.986Z,0
2017-07-23T03:45:54.459Z,0
2017-07-23T03:46:34.921Z,0
2017-07-23T03:47:15.374Z,0
2017-07-23T03:47:55.858Z,0
2017-07-23T03:48:36.360Z,0
2017-07-23T03:49:16.789Z,0
2017-07-23T03:49:57.225Z,0
2017-07-23T03:50:37.683Z,0
2017-07-23T03:51:18.120Z,0
2017-07-23T03:51:58.608Z,0
2017-07-23T03:54:37.069Z,0
2017-07-23T03:55:17.500Z,0
2017-07-23T03:57:45.964Z,0
2017-07-23T03:58:26.395Z,0
2017-07-23T03:59:06.854Z,0
2017-07-23T03:59:47.302Z,0
2017-07-23T04:00:27.782Z,0
2017-07-23T04:01:08.244Z,0
2017-07-23T04:01:48.727Z,0
2017-07-23T04:02:29.168Z,0
2017-07-23T04:03:09.621Z,0
2017-07-23T04:03:50.045Z,0
2017-07-23T04:06:23.378Z,0
2017-07-23T04:07:03.840Z,0
2017-07-23T04:07:44.291Z,0
2017-07-23T04:08:24.728Z,0
2017-07-23T04:09:05.158Z,0
2017-07-23T04:11:23.006Z,0
2017-07-23T04:12:03.478Z,0
2017-07-23T04:12:43.967Z,0
2017-07-23T04:13:24.407Z,0
2017-07-23T04:14:04.858Z,0
2017-07-23T04:14:45.284Z,5
2017-07-23T04:15:25.776Z,5
2017-07-23T04:16:06.224Z,5
2017-07-23T04:16:46.688Z,10
2017-07-23T04:17:27.143Z,15
2017-07-23T04:18:07.590Z,15
2017-07-23T04:18:48.006Z,15
2017-07-23T04:19:28.447Z,15
2017-07-23T04:20:08.931Z,15
2017-07-23T04:20:49.392Z,15
2017-07-23T04:21:29.843Z,15
2017-07-23T04:22:10.289Z,15
2017-07-23T04:22:50.738Z,15
2017-07-23T04:23:31.155Z,10
2017-07-23T04:24:11.628Z,10
2017-07-23T04:24:52.030Z,10
2017-07-23T04:25:32.503Z,5
2017-07-23T04:26:12.954Z,10
2017-07-23T04:26:53.486Z,10
2017-07-23T04:27:33.851Z,10
2017-07-23T04:30:11.977Z,10
2017-07-23T04:30:52.398Z,10
2017-07-23T04:31:33.008Z,10
2017-07-23T04:32:13.561Z,10
2017-07-23T04:32:54.061Z,15
2017-07-23T04:33:34.502Z,15
2017-07-23T04:34:15.013Z,20
2017-07-23T04:34:55.391Z,20
2017-07-23T04:35:35.838Z,20
2017-07-23T04:36:16.276Z,20
2017-07-23T04:36:56.712Z,20
2017-07-23T04:37:37.186Z,20
2017-07-23T04:40:15.301Z,15
2017-07-23T04:40:55.777Z,15
2017-07-23T04:41:36.241Z,15
2017-07-23T04:42:16.728Z,15
2017-07-23T04:42:57.260Z,15
2017-07-23T04:43:37.660Z,20
2017-07-23T04:44:18.115Z,20
2017-07-23T04:44:58.580Z,25
2017-07-23T04:45:39.068Z,25
2017-07-23T04:46:20.052Z,25
2017-07-23T04:48:32.782Z,25
2017-07-23T04:49:13.240Z,30
2017-07-23T04:49:53.684Z,30
2017-07-23T04:50:34.161Z,35
2017-07-23T04:53:12.260Z,50
2017-07-23T04:53:52.751Z,50
2017-07-23T04:54:33.213Z,45
2017-07-23T04:55:13.666Z,40
2017-07-23T04:55:54.207Z,35
2017-07-23T04:56:34.653Z,35
2017-07-23T04:57:15.137Z,35
2017-07-23T04:57:55.539Z,35
2017-07-23T04:58:36.027Z,40
2017-07-23T04:59:16.439Z,40
2017-07-23T04:59:56.875Z,35
2017-07-23T05:00:37.304Z,35
2017-07-23T05:01:17.778Z,30
2017-07-23T05:01:58.237Z,30
2017-07-23T05:02:38.688Z,25
2017-07-23T05:03:19.140Z,25
2017-07-23T05:03:59.600Z,25
2017-07-23T05:04:40.011Z,25
2017-07-23T05:05:20.476Z,30
2017-07-23T05:06:00.916Z,30
2017-07-23T05:08:18.817Z,45
2017-07-23T05:08:59.268Z,55
2017-07-23T05:09:39.743Z,65
2017-07-23T05:10:20.245Z,75
2017-07-23T05:11:00.700Z,80
2017-07-23T05:11:41.186Z,85
2017-07-23T05:12:21.683Z,85
2017-07-23T05:13:02.137Z,90
2017-07-23T05:13:42.591Z,90
2017-07-23T05:16:20.797Z,65
2017-07-23T05:17:01.274Z,60
2017-07-23T05:17:41.759Z,55
2017-07-23T05:18:22.189Z,55
2017-07-23T05:19:02.631Z,60
2017-07-23T05:19:43.038Z,65
2017-07-23T05:20:23.519Z,70
2017-07-23T05:21:03.984Z,75
2017-07-23T05:21:44.430Z,80
2017-07-23T05:22:24.861Z,80
2017-07-23T05:23:05.288Z,85
2017-07-23T05:23:45.776Z,85
2017-07-23T05:24:26.213Z,90
2017-07-23T05:25:06.694Z,100
2017-07-23T05:25:47.142Z,110
2017-07-23T05:26:27.560Z,120
2017-07-23T05:27:08.035Z,135
2017-07-23T05:27:48.499Z,165
2017-07-23T05:28:28.938Z,170
2017-07-23T05:29:09.386Z,175
2017-07-23T05:31:22.112Z,195
2017-07-23T05:32:02.561Z,200
2017-07-23T05:32:43.048Z,185
2017-07-23T05:33:23.484Z,205
2017-07-23T05:34:03.936Z,195
2017-07-23T05:34:44.413Z,245
2017-07-23T05:35:24.841Z,260
2017-07-23T05:37:37.593Z,210
2017-07-23T05:38:18.024Z,200
2017-07-23T05:38:58.470Z,245
2017-07-23T05:39:38.916Z,240
2017-07-23T05:42:11.949Z,190
2017-07-23T05:42:52.405Z,200
2017-07-23T05:43:32.874Z,185
2017-07-23T05:44:13.349Z,185
2017-07-23T05:46:46.428Z,175
2017-07-23T05:47:26.899Z,180
2017-07-23T05:48:07.355Z,175
2017-07-23T05:48:47.787Z,155
2017-07-23T05:49:28.251Z,150
2017-07-23T05:50:08.704Z,130
2017-07-23T05:50:49.232Z,140
2017-07-23T05:51:29.684Z,130
2017-07-23T05:52:10.134Z,125
2017-07-23T05:52:50.625Z,125
2017-07-23T05:53:31.071Z,125
2017-07-23T05:54:11.533Z,115
2017-07-23T05:54:51.973Z,105
2017-07-23T05:55:32.461Z,100
2017-07-23T05:56:12.924Z,95
2017-07-23T05:56:53.382Z,90
2017-07-23T05:57:33.855Z,95
2017-07-23T05:58:14.277Z,95
2017-07-23T05:58:54.755Z,100
2017-07-23T05:59:35.239Z,105
2017-07-23T06:00:15.695Z,115
2017-07-23T06:00:56.143Z,115
2017-07-23T06:01:36.625Z,135
2017-07-23T06:02:17.122Z,145
2017-07-23T06:02:57.584Z,145
2017-07-23T06:03:37.986Z,155
2017-07-23T06:04:18.482Z,155
2017-07-23T06:04:58.899Z,160
2017-07-23T06:05:39.388Z,160
2017-07-23T06:06:19.810Z,165
2017-07-23T06:07:00.280Z,165
2017-07-23T06:07:40.735Z,160
2017-07-23T06:08:21.191Z,160
2017-07-23T06:09:01.693Z,165
2017-07-23T06:09:42.168Z,175
2017-07-23T06:10:22.617Z,170
2017-07-23T06:11:03.123Z,180
2017-07-23T06:11:43.577Z,200
2017-07-23T06:12:24.023Z,215
2017-07-23T06:14:36.769Z,210
2017-07-23T06:15:17.198Z,210
2017-07-23T06:17:35.046Z,295
2017-07-23T06:18:15.512Z,255
2017-07-23T06:18:55.972Z,300
2017-07-23T06:19:36.440Z,255
2017-07-23T06:20:16.907Z,250
2017-07-23T06:20:57.349Z,245
2017-07-23T06:21:37.808Z,250
2017-07-23T06:22:18.279Z,250
2017-07-23T06:22:58.710Z,265
2017-07-23T06:23:39.142Z,260
2017-07-23T06:24:19.662Z,275
2017-07-23T06:25:00.107Z,270
2017-07-23T06:25:40.564Z,265
2017-07-23T06:26:21.018Z,275
2017-07-23T06:27:01.503Z,295
2017-07-23T06:27:41.955Z,300
2017-07-23T06:28:22.410Z,310
2017-07-23T06:29:02.839Z,285
2017-07-23T06:29:43.364Z,260
2017-07-23T06:30:23.816Z,245
2017-07-23T06:31:04.318Z,240
2017-07-23T06:31:44.757Z,240
2017-07-23T06:32:25.230Z,245
2017-07-23T06:35:04.257Z,235
2017-07-23T06:35:44.750Z,235
2017-07-23T06:36:25.235Z,245
2017-07-23T06:37:05.685Z,255
2017-07-23T06:37:46.121Z,265
2017-07-23T06:38:26.541Z,265
2017-07-23T06:39:07.047Z,265
2017-07-23T06:39:47.525Z,270
2017-07-23T06:42:25.616Z,250
2017-07-23T06:43:06.056Z,230
2017-07-23T06:43:46.502Z,220
2017-07-23T06:44:26.916Z,220
2017-07-23T06:45:07.363Z,235
2017-07-23T06:45:47.820Z,250
2017-07-23T06:46:28.265Z,260
2017-07-23T06:47:08.713Z,265
2017-07-23T06:47:49.184Z,290
2017-07-23T06:48:29.638Z,295
2017-07-23T06:50:42.979Z,305
2017-07-23T06:51:23.416Z,335
2017-07-23T06:53:51.684Z,305
2017-07-23T06:54:32.135Z,345
2017-07-23T06:55:12.583Z,290
2017-07-23T06:55:53.605Z,310
2017-07-23T06:56:34.710Z,310
2017-07-23T06:59:12.842Z,280
2017-07-23T06:59:53.334Z,330
2017-07-23T07:02:26.305Z,355
2017-07-23T07:03:06.765Z,325
2017-07-23T07:03:47.181Z,315
2017-07-23T07:04:27.613Z,320
2017-07-23T07:05:08.086Z,335
2017-07-23T07:05:59.338Z,425
2017-07-23T07:06:39.768Z,335
2017-07-23T07:09:17.980Z,440
2017-07-23T07:09:58.470Z,455
2017-07-23T07:10:38.942Z,465
2017-07-23T07:11:19.456Z,465
2017-07-23T07:11:59.908Z,500
2017-07-23T07:12:40.378Z,525
2017-07-23T07:13:20.868Z,530
2017-07-23T07:14:01.346Z,550
2017-07-23T07:16:19.854Z,545
2017-07-23T07:17:00.331Z,700
2017-07-23T07:17:40.741Z,660
2017-07-23T07:18:21.206Z,650
2017-07-23T07:19:01.667Z,635
2017-07-23T07:19:42.179Z,725
2017-07-23T07:20:23.263Z,715
2017-07-23T07:21:03.676Z,785
2017-07-23T07:21:44.129Z,700
2017-07-23T07:22:24.583Z,680
2017-07-23T07:23:05.033Z,605
2017-07-23T07:23:45.484Z,675
2017-07-23T07:24:25.953Z,665
2017-07-23T07:25:06.415Z,645
2017-07-23T07:25:46.862Z,460
2017-07-23T07:26:27.339Z,435
2017-07-23T07:27:07.769Z,560
2017-07-23T07:27:49.082Z,580
2017-07-23T07:28:29.557Z,645
2017-07-23T07:29:10.020Z,620
2017-07-23T07:29:50.448Z,615
2017-07-23T07:30:30.905Z,590
2017-07-23T07:31:11.394Z,640
2017-07-23T07:31:51.815Z,630
2017-07-23T07:32:32.319Z,660
2017-07-23T07:33:12.792Z,560
2017-07-23T07:33:53.237Z,615
2017-07-23T07:34:33.651Z,590
2017-07-23T07:35:14.103Z,585
2017-07-23T07:35:54.554Z,615
2017-07-23T07:38:07.307Z,745
2017-07-23T07:38:47.742Z,700
2017-07-23T07:39:28.172Z,710
2017-07-23T07:40:08.618Z,660
2017-07-23T07:40:49.084Z,575
2017-07-23T07:41:29.575Z,700
2017-07-23T07:42:10.021Z,665
2017-07-23T07:42:50.422Z,600
2017-07-23T07:43:31.514Z,560
2017-07-23T07:46:09.644Z,475
2017-07-23T07:46:50.072Z,490
2017-07-23T07:49:18.090Z,425
2017-07-23T07:49:58.533Z,460
2017-07-23T07:50:39.015Z,400
2017-07-23T07:51:19.480Z,405
2017-07-23T07:51:59.952Z,425
2017-07-23T07:52:40.408Z,440
2017-07-23T07:53:20.909Z,470
2017-07-23T07:54:01.394Z,435
2017-07-23T07:54:41.826Z,465
2017-07-23T07:55:22.301Z,475
2017-07-23T07:57:55.307Z,520
2017-07-23T08:00:08.063Z,545
2017-07-23T08:00:48.615Z,570
2017-07-23T08:01:29.056Z,580
2017-07-23T08:02:09.538Z,605
2017-07-23T08:02:49.998Z,565
2017-07-23T08:03:30.439Z,610
2017-07-23T08:04:10.883Z,620
2017-07-23T08:04:51.319Z,605
2017-07-23T08:05:31.766Z,575
2017-07-23T08:06:12.230Z,570
2017-07-23T08:06:52.669Z,570
2017-07-23T08:07:33.121Z,515
2017-07-23T08:08:13.555Z,550
2017-07-23T08:08:54.002Z,560
2017-07-23T08:09:34.450Z,560
2017-07-23T08:12:12.541Z,765
2017-07-23T08:12:52.974Z,860
2017-07-23T08:15:05.729Z,1025
2017-07-23T08:15:46.242Z,750
2017-07-23T08:16:26.684Z,785
2017-07-23T08:17:07.137Z,915
2017-07-23T08:17:47.597Z,910
2017-07-23T08:18:28.035Z,870
2017-07-23T08:19:08.500Z,750
2017-07-23T08:19:48.971Z,645
2017-07-23T08:20:29.431Z,680
2017-07-23T08:21:09.863Z,600
2017-07-23T08:21:50.339Z,615
2017-07-23T08:22:30.835Z,520
2017-07-23T08:23:11.260Z,495
2017-07-23T08:23:51.707Z,470
2017-07-23T08:24:32.138Z,535
2017-07-23T08:25:12.580Z,540
2017-07-23T08:27:45.642Z,580
2017-07-23T08:28:26.058Z,590
2017-07-23T08:29:06.506Z,695
2017-07-23T08:29:46.957Z,670
2017-07-23T08:30:28.391Z,560
2017-07-23T08:32:41.198Z,605
2017-07-23T08:33:21.659Z,480
2017-07-23T08:34:02.173Z,435
2017-07-23T08:34:42.620Z,400
2017-07-23T08:35:23.079Z,370
2017-07-23T08:36:03.599Z,380
2017-07-23T08:36:44.030Z,350
2017-07-23T08:37:24.553Z,340
2017-07-23T08:38:05.027Z,385
2017-07-23T08:38:45.521Z,420
2017-07-23T08:39:26.026Z,425
2017-07-23T08:40:06.500Z,360
2017-07-23T08:42:44.606Z,280
2017-07-23T08:43:25.109Z,280
2017-07-23T08:44:06.183Z,290
2017-07-23T08:44:46.640Z,300
2017-07-23T08:45:27.086Z,305
2017-07-23T08:46:07.567Z,345
2017-07-23T08:46:48.044Z,360
2017-07-23T08:49:05.880Z,340
2017-07-23T08:49:46.329Z,315
2017-07-23T08:50:26.789Z,345
2017-07-23T08:51:07.241Z,365
2017-07-23T08:51:47.714Z,430
2017-07-23T08:52:28.204Z,475
2017-07-23T08:53:08.694Z,560
2017-07-23T08:53:49.218Z,600
2017-07-23T08:54:29.705Z,560
2017-07-23T08:55:10.145Z,565
2017-07-23T08:55:50.622Z,730
2017-07-23T08:56:31.052Z,640
2017-07-23T08:57:11.460Z,535
2017-07-23T08:57:51.903Z,470
2017-07-23T08:58:32.380Z,590
2017-07-23T09:01:10.494Z,985
2017-07-23T09:01:50.950Z,555
2017-07-23T09:02:31.429Z,540
2017-07-23T09:03:11.859Z,545
2017-07-23T09:03:53.034Z,525
2017-07-23T09:04:33.482Z,475
2017-07-23T09:05:13.958Z,500
2017-07-23T09:07:31.748Z,500
2017-07-23T09:08:12.226Z,845
2017-07-23T09:08:52.688Z,640
2017-07-23T09:09:33.132Z,395
2017-07-23T09:10:14.274Z,350
2017-07-23T09:10:54.768Z,320
2017-07-23T09:11:35.211Z,265
2017-07-23T09:12:15.681Z,245
2017-07-23T09:12:56.123Z,230
2017-07-23T09:13:36.602Z,215
2017-07-23T09:14:17.052Z,210
2017-07-23T09:16:50.075Z,215
2017-07-23T09:17:30.539Z,245
2017-07-23T09:20:03.869Z,370
2017-07-23T09:20:44.327Z,305
2017-07-23T09:21:24.805Z,260
2017-07-23T09:22:05.261Z,255
2017-07-23T09:22:45.747Z,260
2017-07-23T09:23:26.205Z,305
2017-07-23T09:25:44.059Z,490
2017-07-23T09:26:24.500Z,555
2017-07-23T09:27:05.798Z,515
2017-07-23T09:27:46.228Z,490
2017-07-23T09:30:04.032Z,625
2017-07-23T09:30:44.511Z,515
2017-07-23T09:31:24.956Z,530
2017-07-23T09:32:05.413Z,550
2017-07-23T09:32:45.857Z,525
2017-07-23T09:33:26.326Z,520
2017-07-23T09:34:06.772Z,545
2017-07-23T09:34:47.239Z,665
2017-07-23T09:35:27.709Z,690
2017-07-23T09:36:08.164Z,3065
2017-07-23T09:36:48.630Z,3165
2017-07-23T09:37:29.096Z,3015
2017-07-23T09:40:07.833Z,1335
2017-07-23T09:40:48.334Z,530
2017-07-23T09:41:28.806Z,540
2017-07-23T09:42:09.251Z,950
2017-07-23T09:44:21.958Z,635
2017-07-23T09:48:37.524Z,750
2017-07-23T09:49:18.004Z,1235
2017-07-23T09:49:58.473Z,1400
2017-07-23T09:50:38.923Z,2380
2017-07-23T09:51:19.426Z,2695
2017-07-23T09:51:59.856Z,525
2017-07-23T09:52:40.313Z,950
2017-07-23T09:53:20.758Z,3220
2017-07-23T09:54:01.216Z,3280
2017-07-23T09:54:41.668Z,2915
2017-07-23T09:55:22.135Z,990
2017-07-23T09:56:03.085Z,3330
2017-07-23T09:58:15.831Z,3410
2017-07-23T09:58:56.275Z,3370
2017-07-23T09:59:36.728Z,2875
2017-07-23T10:00:17.178Z,1325
2017-07-23T10:00:57.624Z,1245
2017-07-23T10:01:38.055Z,3370
2017-07-23T10:02:18.501Z,470
2017-07-23T10:02:58.974Z,475
2017-07-23T10:03:39.425Z,570
2017-07-23T10:04:19.885Z,620
2017-07-23T10:05:00.351Z,870
2017-07-23T10:05:40.802Z,915
2017-07-23T10:06:21.251Z,670
2017-07-23T10:07:01.708Z,800
2017-07-23T10:07:42.169Z,580
2017-07-23T10:08:22.624Z,515
2017-07-23T10:09:03.100Z,455
2017-07-23T10:09:43.577Z,420
2017-07-23T10:10:24.001Z,410
2017-07-23T10:11:04.471Z,415
2017-07-23T10:11:44.925Z,520
2017-07-23T10:12:25.441Z,3345
2017-07-23T10:13:05.898Z,3380
2017-07-23T10:13:46.341Z,1825
2017-07-23T10:15:59.070Z,565
2017-07-23T10:16:39.517Z,520
2017-07-23T10:17:19.969Z,515
2017-07-23T10:18:01.138Z,655
2017-07-23T10:18:42.144Z,500
2017-07-23T10:19:22.629Z,465
2017-07-23T10:20:03.070Z,430
2017-07-23T10:20:43.512Z,410
2017-07-23T10:23:21.665Z,330
2017-07-23T10:24:02.119Z,320
2017-07-23T10:24:42.596Z,330
2017-07-23T10:25:23.056Z,325
2017-07-23T10:26:03.538Z,320
2017-07-23T10:26:44.054Z,290
2017-07-23T10:27:24.496Z,290
2017-07-23T10:28:04.961Z,305
2017-07-23T10:28:45.414Z,300
2017-07-23T10:29:25.820Z,285
2017-07-23T10:30:06.266Z,265
2017-07-23T10:30:46.802Z,245
2017-07-23T10:31:27.276Z,250
2017-07-23T10:32:07.721Z,250
2017-07-23T10:32:48.163Z,240
2017-07-23T10:33:28.573Z,215
2017-07-23T10:34:09.025Z,210
2017-07-23T10:34:49.510Z,215
2017-07-23T10:35:29.926Z,225
2017-07-23T10:36:10.401Z,230
2017-07-23T10:36:50.846Z,240
2017-07-23T10:37:31.352Z,285
2017-07-23T10:38:11.782Z,340
2017-07-23T10:38:52.258Z,385
2017-07-23T10:39:32.687Z,460
2017-07-23T10:40:13.136Z,560
2017-07-23T10:42:31.887Z,740
2017-07-23T10:43:12.359Z,730
2017-07-23T10:43:52.837Z,750
2017-07-23T10:44:33.295Z,830
2017-07-23T10:45:13.748Z,775
2017-07-23T10:45:55.380Z,665
2017-07-23T10:46:35.824Z,655
2017-07-23T10:47:16.304Z,660
2017-07-23T10:47:58.479Z,635
2017-07-23T10:48:38.970Z,625
2017-07-23T10:49:19.986Z,680
2017-07-23T10:50:00.443Z,855
2017-07-23T10:52:18.260Z,960
2017-07-23T10:52:58.749Z,1255
2017-07-23T10:53:39.227Z,715
2017-07-23T10:54:19.689Z,745
2017-07-23T10:55:00.143Z,710
2017-07-23T10:57:17.960Z,640
2017-07-23T10:57:58.421Z,3240
2017-07-23T10:58:38.877Z,3740
2017-07-23T10:59:19.347Z,3790
2017-07-23T10:59:59.786Z,3740
2017-07-23T11:00:40.385Z,3735
2017-07-23T11:01:20.856Z,3800
2017-07-23T11:02:01.316Z,3895
2017-07-23T11:02:41.800Z,3945
2017-07-23T11:03:22.235Z,3970
2017-07-23T11:05:40.105Z,4060
2017-07-23T11:08:18.212Z,4280
2017-07-23T11:08:58.690Z,1565
2017-07-23T11:09:39.192Z,1125
2017-07-23T11:10:19.674Z,1015
2017-07-23T11:11:00.172Z,1015
2017-07-23T11:11:40.641Z,780
2017-07-23T11:12:21.106Z,745
2017-07-23T11:13:01.581Z,985
2017-07-23T11:13:42.013Z,1005
2017-07-23T11:16:20.140Z,3845
2017-07-23T11:17:00.633Z,3940
2017-07-23T11:17:41.051Z,3160
2017-07-23T11:18:21.479Z,2160
2017-07-23T11:19:01.976Z,980
2017-07-23T11:19:42.385Z,2880
2017-07-23T11:20:22.852Z,1425
2017-07-23T11:21:03.337Z,3870
2017-07-23T11:21:43.819Z,3785
2017-07-23T11:22:24.276Z,3740
2017-07-23T11:23:04.687Z,3475
2017-07-23T11:23:45.222Z,3710
2017-07-23T11:24:25.651Z,3650
2017-07-23T11:25:06.096Z,3090
2017-07-23T11:25:46.548Z,3685
2017-07-23T11:26:27.019Z,3745
2017-07-23T11:28:55.108Z,3880
2017-07-23T11:29:35.528Z,580
2017-07-23T11:30:15.979Z,505
2017-07-23T11:30:56.488Z,445
2017-07-23T11:31:36.950Z,460
2017-07-23T11:32:17.460Z,540
2017-07-23T11:32:57.920Z,3550
2017-07-23T11:33:38.352Z,4020
2017-07-23T11:34:18.856Z,3900
2017-07-23T11:34:59.325Z,3830
2017-07-23T11:35:39.802Z,3805
2017-07-23T11:36:20.276Z,3765
2017-07-23T11:37:00.781Z,3860
2017-07-23T11:37:41.222Z,3880
2017-07-23T11:38:21.729Z,820
2017-07-23T11:39:02.161Z,705
2017-07-23T11:39:42.624Z,505
2017-07-23T11:42:00.424Z,495
2017-07-23T11:42:40.902Z,515
2017-07-23T11:43:21.403Z,520
2017-07-23T11:44:01.824Z,545
2017-07-23T11:44:42.256Z,605
2017-07-23T11:45:22.725Z,735
2017-07-23T11:47:35.465Z,985
2017-07-23T11:48:15.948Z,715
2017-07-23T11:48:56.418Z,855
2017-07-23T11:51:09.143Z,4095
2017-07-23T11:51:49.588Z,3045
2017-07-23T11:52:30.126Z,2685
2017-07-23T11:53:10.566Z,2445
2017-07-23T11:53:51.020Z,2245
2017-07-23T11:54:31.470Z,1985
2017-07-23T11:55:11.937Z,1455
2017-07-23T11:57:29.786Z,990
2017-07-23T11:58:10.324Z,1020